sensor_id;sensor_type;location;lat;lon;timestamp;P1;durP1;ratioP1;P2;durP2;ratioP2
49103;SDS011;34915;52.926;11.116;2022-11-18T00:02:05;15.73;;;9.40;;
49103;SDS011;34915;52.926;11.116;2022-11-18T00:04:30;13.60;;;8.50;;
49103;SDS011;34915;52.926;11.116;2022-11-18T00:06:56;13.03;;;8.73;;
49103;SDS011;34915;52.926;11.116;2022-11-18T00:09:22;14.10;;;8.83;;
49103;SDS011;34915;52.926;11.116;2022-11-18T00:11:47;14.23;;;8.40;;
49103;SDS011;34915;52.926;11.116;2022-11-18T00:14:32;13.67;;;8.20;;
49103;SDS011;34915;52.926;11.116;2022-11-18T00:16:58;13.27;;;8.77;;
49103;SDS011;34915;52.926;11.116;2022-11-18T00:19:26;13.17;;;8.50;;
49103;SDS011;34915;52.926;11.116;2022-11-18T00:21:54;15.00;;;8.97;;
49103;SDS011;34915;52.926;11.116;2022-11-18T00:24:20;13.83;;;9.00;;
49103;SDS011;34915;52.926;11.116;2022-11-18T00:26:46;14.47;;;8.93;;
49103;SDS011;34915;52.926;11.116;2022-11-18T00:29:12;13.50;;;9.37;;
49103;SDS011;34915;52.926;11.116;2022-11-18T00:31:38;14.83;;;8.77;;
49103;SDS011;34915;52.926;11.116;2022-11-18T00:34:04;15.10;;;9.33;;
49103;SDS011;34915;52.926;11.116;2022-11-18T00:36:30;14.70;;;8.90;;
49103;SDS011;34915;52.926;11.116;2022-11-18T00:38:56;14.20;;;9.10;;
49103;SDS011;34915;52.926;11.116;2022-11-18T00:41:22;16.80;;;8.33;;
49103;SDS011;34915;52.926;11.116;2022-11-18T00:43:48;13.97;;;8.17;;
49103;SDS011;34915;52.926;11.116;2022-11-18T00:46:14;15.13;;;9.07;;
49103;SDS011;34915;52.926;11.116;2022-11-18T00:48:40;14.03;;;9.10;;
49103;SDS011;34915;52.926;11.116;2022-11-18T00:51:16;13.97;;;8.53;;
49103;SDS011;34915;52.926;11.116;2022-11-18T00:53:43;14.93;;;9.47;;
49103;SDS011;34915;52.926;11.116;2022-11-18T00:56:09;15.67;;;8.97;;
49103;SDS011;34915;52.926;11.116;2022-11-18T00:58:35;13.83;;;8.67;;
49103;SDS011;34915;52.926;11.116;2022-11-18T01:01:01;14.90;;;9.60;;
49103;SDS011;34915;52.926;11.116;2022-11-18T01:03:28;13.63;;;9.30;;
49103;SDS011;34915;52.926;11.116;2022-11-18T01:05:53;13.10;;;9.00;;
49103;SDS011;34915;52.926;11.116;2022-11-18T01:08:19;13.00;;;8.70;;
49103;SDS011;34915;52.926;11.116;2022-11-18T01:10:46;15.40;;;9.13;;
49103;SDS011;34915;52.926;11.116;2022-11-18T01:13:14;15.83;;;9.03;;
49103;SDS011;34915;52.926;11.116;2022-11-18T01:15:55;13.10;;;7.97;;
49103;SDS011;34915;52.926;11.116;2022-11-18T01:18:23;15.13;;;9.00;;
49103;SDS011;34915;52.926;11.116;2022-11-18T01:20:50;13.17;;;8.33;;
49103;SDS011;34915;52.926;11.116;2022-11-18T01:23:17;15.57;;;9.23;;
49103;SDS011;34915;52.926;11.116;2022-11-18T01:25:44;16.00;;;9.13;;
49103;SDS011;34915;52.926;11.116;2022-11-18T01:28:12;16.00;;;9.97;;
49103;SDS011;34915;52.926;11.116;2022-11-18T01:30:40;16.40;;;9.00;;
49103;SDS011;34915;52.926;11.116;2022-11-18T01:33:06;14.90;;;8.77;;
49103;SDS011;34915;52.926;11.116;2022-11-18T01:35:35;14.57;;;8.70;;
49103;SDS011;34915;52.926;11.116;2022-11-18T01:38:03;16.40;;;8.73;;
49103;SDS011;34915;52.926;11.116;2022-11-18T01:40:29;13.17;;;8.50;;
49103;SDS011;34915;52.926;11.116;2022-11-18T01:42:55;13.20;;;9.03;;
49103;SDS011;34915;52.926;11.116;2022-11-18T01:45:32;14.70;;;9.53;;
49103;SDS011;34915;52.926;11.116;2022-11-18T01:50:34;15.10;;;9.03;;
49103;SDS011;34915;52.926;11.116;2022-11-18T01:53:05;15.67;;;9.03;;
49103;SDS011;34915;52.926;11.116;2022-11-18T01:55:36;12.90;;;9.00;;
49103;SDS011;34915;52.926;11.116;2022-11-18T01:58:10;13.83;;;8.67;;
49103;SDS011;34915;52.926;11.116;2022-11-18T02:00:43;18.17;;;9.80;;
49103;SDS011;34915;52.926;11.116;2022-11-18T02:03:09;13.60;;;8.93;;
49103;SDS011;34915;52.926;11.116;2022-11-18T02:05:36;13.47;;;7.53;;
49103;SDS011;34915;52.926;11.116;2022-11-18T02:08:04;14.33;;;8.23;;
49103;SDS011;34915;52.926;11.116;2022-11-18T02:10:31;12.47;;;7.97;;
49103;SDS011;34915;52.926;11.116;2022-11-18T02:12:57;13.33;;;7.87;;
49103;SDS011;34915;52.926;11.116;2022-11-18T02:15:34;13.13;;;7.93;;
49103;SDS011;34915;52.926;11.116;2022-11-18T02:18:13;12.30;;;7.40;;
49103;SDS011;34915;52.926;11.116;2022-11-18T02:20:47;13.67;;;8.93;;
49103;SDS011;34915;52.926;11.116;2022-11-18T02:36:39;13.90;;;8.87;;
49103;SDS011;34915;52.926;11.116;2022-11-18T02:39:11;14.27;;;9.03;;
49103;SDS011;34915;52.926;11.116;2022-11-18T02:41:46;12.83;;;8.37;;
49103;SDS011;34915;52.926;11.116;2022-11-18T02:44:15;14.13;;;8.57;;
49103;SDS011;34915;52.926;11.116;2022-11-18T02:46:47;15.37;;;9.07;;
49103;SDS011;34915;52.926;11.116;2022-11-18T02:49:19;13.40;;;7.93;;
49103;SDS011;34915;52.926;11.116;2022-11-18T02:51:49;14.07;;;8.73;;
49103;SDS011;34915;52.926;11.116;2022-11-18T02:54:17;14.27;;;9.70;;
49103;SDS011;34915;52.926;11.116;2022-11-18T02:56:45;15.40;;;9.13;;
49103;SDS011;34915;52.926;11.116;2022-11-18T02:59:16;13.77;;;9.23;;
49103;SDS011;34915;52.926;11.116;2022-11-18T03:01:43;16.60;;;9.50;;
49103;SDS011;34915;52.926;11.116;2022-11-18T03:04:09;14.60;;;8.57;;
49103;SDS011;34915;52.926;11.116;2022-11-18T03:06:41;15.90;;;8.77;;
49103;SDS011;34915;52.926;11.116;2022-11-18T03:12:15;13.80;;;9.07;;
49103;SDS011;34915;52.926;11.116;2022-11-18T03:17:18;15.73;;;9.30;;
49103;SDS011;34915;52.926;11.116;2022-11-18T03:23:01;16.57;;;9.07;;
49103;SDS011;34915;52.926;11.116;2022-11-18T03:30:55;15.03;;;8.83;;
49103;SDS011;34915;52.926;11.116;2022-11-18T03:33:31;13.60;;;8.47;;
49103;SDS011;34915;52.926;11.116;2022-11-18T03:36:01;18.00;;;9.83;;
49103;SDS011;34915;52.926;11.116;2022-11-18T03:38:33;16.93;;;10.13;;
49103;SDS011;34915;52.926;11.116;2022-11-18T03:41:03;15.10;;;9.43;;
49103;SDS011;34915;52.926;11.116;2022-11-18T03:43:34;13.57;;;8.73;;
49103;SDS011;34915;52.926;11.116;2022-11-18T03:46:18;14.67;;;8.97;;
49103;SDS011;34915;52.926;11.116;2022-11-18T03:48:53;19.53;;;10.23;;
49103;SDS011;34915;52.926;11.116;2022-11-18T03:52:04;14.77;;;9.13;;
49103;SDS011;34915;52.926;11.116;2022-11-18T03:54:24;15.70;;;10.10;;
49103;SDS011;34915;52.926;11.116;2022-11-18T03:56:57;16.97;;;9.53;;
49103;SDS011;34915;52.926;11.116;2022-11-18T03:59:37;17.13;;;9.73;;
49103;SDS011;34915;52.926;11.116;2022-11-18T04:02:12;15.93;;;10.23;;
49103;SDS011;34915;52.926;11.116;2022-11-18T04:04:41;18.37;;;9.53;;
49103;SDS011;34915;52.926;11.116;2022-11-18T04:07:17;18.40;;;10.30;;
49103;SDS011;34915;52.926;11.116;2022-11-18T04:12:34;15.27;;;9.17;;
49103;SDS011;34915;52.926;11.116;2022-11-18T04:15:05;18.60;;;10.63;;
49103;SDS011;34915;52.926;11.116;2022-11-18T04:17:31;16.70;;;9.80;;
49103;SDS011;34915;52.926;11.116;2022-11-18T04:19:56;17.23;;;10.53;;
49103;SDS011;34915;52.926;11.116;2022-11-18T04:22:22;21.37;;;11.30;;
49103;SDS011;34915;52.926;11.116;2022-11-18T04:24:48;17.77;;;11.50;;
49103;SDS011;34915;52.926;11.116;2022-11-18T04:27:13;18.80;;;10.50;;
49103;SDS011;34915;52.926;11.116;2022-11-18T04:29:39;17.40;;;10.87;;
49103;SDS011;34915;52.926;11.116;2022-11-18T04:32:05;17.37;;;9.93;;
49103;SDS011;34915;52.926;11.116;2022-11-18T04:34:30;19.53;;;10.80;;
49103;SDS011;34915;52.926;11.116;2022-11-18T04:36:57;17.77;;;10.60;;
49103;SDS011;34915;52.926;11.116;2022-11-18T04:39:23;18.43;;;10.33;;
49103;SDS011;34915;52.926;11.116;2022-11-18T04:41:48;18.57;;;10.83;;
49103;SDS011;34915;52.926;11.116;2022-11-18T04:44:20;17.10;;;10.17;;
49103;SDS011;34915;52.926;11.116;2022-11-18T04:46:51;16.63;;;10.10;;
49103;SDS011;34915;52.926;11.116;2022-11-18T04:49:17;21.60;;;11.27;;
49103;SDS011;34915;52.926;11.116;2022-11-18T04:51:43;18.53;;;10.57;;
49103;SDS011;34915;52.926;11.116;2022-11-18T04:54:10;16.93;;;10.63;;
49103;SDS011;34915;52.926;11.116;2022-11-18T04:56:37;20.17;;;11.70;;
49103;SDS011;34915;52.926;11.116;2022-11-18T04:59:03;19.37;;;11.67;;
49103;SDS011;34915;52.926;11.116;2022-11-18T05:01:29;18.90;;;10.97;;
49103;SDS011;34915;52.926;11.116;2022-11-18T05:03:55;18.57;;;10.47;;
49103;SDS011;34915;52.926;11.116;2022-11-18T05:06:21;16.97;;;10.43;;
49103;SDS011;34915;52.926;11.116;2022-11-18T05:08:47;20.70;;;10.43;;
49103;SDS011;34915;52.926;11.116;2022-11-18T05:11:13;20.67;;;11.60;;
49103;SDS011;34915;52.926;11.116;2022-11-18T05:13:57;20.30;;;11.67;;
49103;SDS011;34915;52.926;11.116;2022-11-18T05:16:23;19.20;;;11.40;;
49103;SDS011;34915;52.926;11.116;2022-11-18T05:18:49;18.27;;;11.20;;
49103;SDS011;34915;52.926;11.116;2022-11-18T05:21:15;18.80;;;11.97;;
49103;SDS011;34915;52.926;11.116;2022-11-18T05:23:40;18.90;;;11.50;;
49103;SDS011;34915;52.926;11.116;2022-11-18T05:26:07;21.20;;;11.90;;
49103;SDS011;34915;52.926;11.116;2022-11-18T05:28:33;21.70;;;11.90;;
49103;SDS011;34915;52.926;11.116;2022-11-18T05:30:59;20.63;;;12.70;;
49103;SDS011;34915;52.926;11.116;2022-11-18T05:33:30;19.67;;;11.30;;
49103;SDS011;34915;52.926;11.116;2022-11-18T05:35:56;21.17;;;12.23;;
49103;SDS011;34915;52.926;11.116;2022-11-18T05:38:21;24.90;;;12.97;;
49103;SDS011;34915;52.926;11.116;2022-11-18T05:40:47;20.23;;;12.60;;
49103;SDS011;34915;52.926;11.116;2022-11-18T05:43:13;21.50;;;12.03;;
49103;SDS011;34915;52.926;11.116;2022-11-18T05:45:39;21.30;;;11.00;;
49103;SDS011;34915;52.926;11.116;2022-11-18T05:48:05;20.27;;;12.10;;
49103;SDS011;34915;52.926;11.116;2022-11-18T05:50:35;18.80;;;12.00;;
49103;SDS011;34915;52.926;11.116;2022-11-18T05:53:02;20.90;;;11.30;;
49103;SDS011;34915;52.926;11.116;2022-11-18T05:55:30;21.00;;;11.63;;
49103;SDS011;34915;52.926;11.116;2022-11-18T05:58:02;20.70;;;12.03;;
49103;SDS011;34915;52.926;11.116;2022-11-18T06:00:28;18.47;;;11.17;;
49103;SDS011;34915;52.926;11.116;2022-11-18T06:02:54;23.00;;;11.23;;
49103;SDS011;34915;52.926;11.116;2022-11-18T06:05:21;19.97;;;12.07;;
49103;SDS011;34915;52.926;11.116;2022-11-18T06:07:49;19.77;;;10.43;;
49103;SDS011;34915;52.926;11.116;2022-11-18T06:10:18;19.40;;;10.63;;
49103;SDS011;34915;52.926;11.116;2022-11-18T06:12:52;20.90;;;11.30;;
49103;SDS011;34915;52.926;11.116;2022-11-18T06:15:24;20.67;;;11.77;;
49103;SDS011;34915;52.926;11.116;2022-11-18T06:17:53;20.10;;;11.63;;
49103;SDS011;34915;52.926;11.116;2022-11-18T06:20:26;19.47;;;11.60;;
49103;SDS011;34915;52.926;11.116;2022-11-18T06:22:53;18.37;;;10.53;;
49103;SDS011;34915;52.926;11.116;2022-11-18T06:25:21;19.60;;;11.23;;
49103;SDS011;34915;52.926;11.116;2022-11-18T06:27:47;16.87;;;9.70;;
49103;SDS011;34915;52.926;11.116;2022-11-18T06:30:15;17.03;;;10.57;;
49103;SDS011;34915;52.926;11.116;2022-11-18T06:32:41;15.63;;;10.07;;
49103;SDS011;34915;52.926;11.116;2022-11-18T06:35:07;16.47;;;10.20;;
49103;SDS011;34915;52.926;11.116;2022-11-18T06:37:34;16.07;;;10.43;;
49103;SDS011;34915;52.926;11.116;2022-11-18T06:40:00;20.30;;;11.50;;
49103;SDS011;34915;52.926;11.116;2022-11-18T06:42:27;15.80;;;9.70;;
49103;SDS011;34915;52.926;11.116;2022-11-18T06:45:11;17.70;;;10.50;;
49103;SDS011;34915;52.926;11.116;2022-11-18T06:47:37;16.57;;;9.27;;
49103;SDS011;34915;52.926;11.116;2022-11-18T06:50:03;14.73;;;9.20;;
49103;SDS011;34915;52.926;11.116;2022-11-18T06:52:29;16.63;;;9.87;;
49103;SDS011;34915;52.926;11.116;2022-11-18T06:54:54;14.03;;;9.87;;
49103;SDS011;34915;52.926;11.116;2022-11-18T06:57:20;16.90;;;10.17;;
49103;SDS011;34915;52.926;11.116;2022-11-18T06:59:46;15.33;;;9.40;;
49103;SDS011;34915;52.926;11.116;2022-11-18T07:02:11;15.03;;;9.20;;
49103;SDS011;34915;52.926;11.116;2022-11-18T07:04:37;15.10;;;9.43;;
49103;SDS011;34915;52.926;11.116;2022-11-18T07:07:05;16.97;;;9.57;;
49103;SDS011;34915;52.926;11.116;2022-11-18T07:09:32;15.03;;;9.23;;
49103;SDS011;34915;52.926;11.116;2022-11-18T07:11:59;15.47;;;10.37;;
49103;SDS011;34915;52.926;11.116;2022-11-18T07:14:24;19.23;;;10.50;;
49103;SDS011;34915;52.926;11.116;2022-11-18T07:16:50;20.07;;;11.53;;
49103;SDS011;34915;52.926;11.116;2022-11-18T07:19:15;19.13;;;11.33;;
49103;SDS011;34915;52.926;11.116;2022-11-18T07:21:41;16.87;;;10.37;;
49103;SDS011;34915;52.926;11.116;2022-11-18T07:24:08;19.40;;;11.27;;
49103;SDS011;34915;52.926;11.116;2022-11-18T07:26:36;17.20;;;10.97;;
49103;SDS011;34915;52.926;11.116;2022-11-18T07:29:02;17.90;;;11.03;;
49103;SDS011;34915;52.926;11.116;2022-11-18T07:31:28;19.60;;;11.27;;
49103;SDS011;34915;52.926;11.116;2022-11-18T07:33:53;17.47;;;11.33;;
49103;SDS011;34915;52.926;11.116;2022-11-18T07:36:20;17.67;;;11.33;;
49103;SDS011;34915;52.926;11.116;2022-11-18T07:38:47;17.17;;;10.30;;
49103;SDS011;34915;52.926;11.116;2022-11-18T07:41:14;18.07;;;11.77;;
49103;SDS011;34915;52.926;11.116;2022-11-18T07:43:41;15.97;;;9.97;;
49103;SDS011;34915;52.926;11.116;2022-11-18T07:46:14;19.83;;;11.67;;
49103;SDS011;34915;52.926;11.116;2022-11-18T07:48:40;18.37;;;11.60;;
49103;SDS011;34915;52.926;11.116;2022-11-18T07:51:07;18.60;;;10.53;;
49103;SDS011;34915;52.926;11.116;2022-11-18T07:53:33;17.67;;;10.57;;
49103;SDS011;34915;52.926;11.116;2022-11-18T07:56:00;17.40;;;10.37;;
49103;SDS011;34915;52.926;11.116;2022-11-18T07:58:26;18.03;;;11.73;;
49103;SDS011;34915;52.926;11.116;2022-11-18T08:00:52;18.67;;;11.50;;
49103;SDS011;34915;52.926;11.116;2022-11-18T08:03:18;20.77;;;11.87;;
49103;SDS011;34915;52.926;11.116;2022-11-18T08:05:43;18.73;;;11.87;;
49103;SDS011;34915;52.926;11.116;2022-11-18T08:08:09;17.23;;;11.40;;
49103;SDS011;34915;52.926;11.116;2022-11-18T08:10:35;17.93;;;11.10;;
49103;SDS011;34915;52.926;11.116;2022-11-18T08:13:01;20.43;;;12.83;;
49103;SDS011;34915;52.926;11.116;2022-11-18T08:15:27;20.80;;;12.23;;
49103;SDS011;34915;52.926;11.116;2022-11-18T08:17:52;18.10;;;11.13;;
49103;SDS011;34915;52.926;11.116;2022-11-18T08:20:18;20.00;;;12.30;;
49103;SDS011;34915;52.926;11.116;2022-11-18T08:22:44;20.23;;;12.53;;
49103;SDS011;34915;52.926;11.116;2022-11-18T08:25:09;19.77;;;12.60;;
49103;SDS011;34915;52.926;11.116;2022-11-18T08:27:35;18.30;;;11.70;;
49103;SDS011;34915;52.926;11.116;2022-11-18T08:30:01;22.20;;;11.80;;
49103;SDS011;34915;52.926;11.116;2022-11-18T08:32:26;18.17;;;11.30;;
49103;SDS011;34915;52.926;11.116;2022-11-18T08:34:52;18.10;;;11.63;;
49103;SDS011;34915;52.926;11.116;2022-11-18T08:37:18;18.57;;;11.30;;
49103;SDS011;34915;52.926;11.116;2022-11-18T08:39:44;18.70;;;10.87;;
49103;SDS011;34915;52.926;11.116;2022-11-18T08:42:09;17.33;;;10.57;;
49103;SDS011;34915;52.926;11.116;2022-11-18T08:44:37;19.17;;;11.80;;
49103;SDS011;34915;52.926;11.116;2022-11-18T08:47:03;16.70;;;10.83;;
49103;SDS011;34915;52.926;11.116;2022-11-18T08:49:28;19.40;;;12.10;;
49103;SDS011;34915;52.926;11.116;2022-11-18T08:51:54;18.30;;;11.80;;
49103;SDS011;34915;52.926;11.116;2022-11-18T08:54:19;19.10;;;12.30;;
49103;SDS011;34915;52.926;11.116;2022-11-18T08:56:45;18.40;;;11.80;;
49103;SDS011;34915;52.926;11.116;2022-11-18T08:59:11;18.03;;;10.93;;
49103;SDS011;34915;52.926;11.116;2022-11-18T09:01:38;15.57;;;10.33;;
49103;SDS011;34915;52.926;11.116;2022-11-18T09:04:06;15.87;;;10.60;;
49103;SDS011;34915;52.926;11.116;2022-11-18T09:06:32;15.43;;;11.27;;
49103;SDS011;34915;52.926;11.116;2022-11-18T09:08:59;17.17;;;10.70;;
49103;SDS011;34915;52.926;11.116;2022-11-18T09:11:25;16.87;;;11.03;;
49103;SDS011;34915;52.926;11.116;2022-11-18T09:13:54;17.03;;;11.27;;
49103;SDS011;34915;52.926;11.116;2022-11-18T09:16:24;16.30;;;10.77;;
49103;SDS011;34915;52.926;11.116;2022-11-18T09:18:51;15.90;;;10.77;;
49103;SDS011;34915;52.926;11.116;2022-11-18T09:21:18;16.40;;;10.47;;
49103;SDS011;34915;52.926;11.116;2022-11-18T09:23:47;16.27;;;11.00;;
49103;SDS011;34915;52.926;11.116;2022-11-18T09:26:14;17.70;;;10.30;;
49103;SDS011;34915;52.926;11.116;2022-11-18T09:28:41;15.83;;;10.10;;
49103;SDS011;34915;52.926;11.116;2022-11-18T09:31:07;14.00;;;9.70;;
49103;SDS011;34915;52.926;11.116;2022-11-18T09:33:34;16.60;;;10.93;;
49103;SDS011;34915;52.926;11.116;2022-11-18T09:36:00;15.80;;;9.57;;
49103;SDS011;34915;52.926;11.116;2022-11-18T09:38:30;20.43;;;11.27;;
49103;SDS011;34915;52.926;11.116;2022-11-18T09:49:10;18.27;;;11.60;;
49103;SDS011;34915;52.926;11.116;2022-11-18T09:51:42;16.47;;;10.37;;
49103;SDS011;34915;52.926;11.116;2022-11-18T09:54:23;19.20;;;11.07;;
49103;SDS011;34915;52.926;11.116;2022-11-18T09:56:51;19.23;;;11.57;;
49103;SDS011;34915;52.926;11.116;2022-11-18T09:59:20;17.67;;;10.90;;
49103;SDS011;34915;52.926;11.116;2022-11-18T10:01:48;18.43;;;12.20;;
49103;SDS011;34915;52.926;11.116;2022-11-18T10:04:18;17.80;;;11.10;;
49103;SDS011;34915;52.926;11.116;2022-11-18T10:06:46;15.93;;;10.60;;
49103;SDS011;34915;52.926;11.116;2022-11-18T10:14:29;17.47;;;11.20;;
49103;SDS011;34915;52.926;11.116;2022-11-18T10:19:38;17.47;;;11.20;;
49103;SDS011;34915;52.926;11.116;2022-11-18T10:24:58;17.73;;;11.53;;
49103;SDS011;34915;52.926;11.116;2022-11-18T10:27:34;18.17;;;10.67;;
49103;SDS011;34915;52.926;11.116;2022-11-18T10:32:52;17.53;;;11.27;;
49103;SDS011;34915;52.926;11.116;2022-11-18T10:35:51;17.47;;;11.90;;
49103;SDS011;34915;52.926;11.116;2022-11-18T10:40:41;17.57;;;10.57;;
49103;SDS011;34915;52.926;11.116;2022-11-18T10:43:10;17.90;;;11.03;;
49103;SDS011;34915;52.926;11.116;2022-11-18T10:45:37;16.87;;;11.03;;
49103;SDS011;34915;52.926;11.116;2022-11-18T10:48:19;17.03;;;10.83;;
49103;SDS011;34915;52.926;11.116;2022-11-18T10:50:46;17.10;;;10.43;;
49103;SDS011;34915;52.926;11.116;2022-11-18T10:55:57;15.53;;;10.20;;
49103;SDS011;34915;52.926;11.116;2022-11-18T10:58:24;13.83;;;9.73;;
49103;SDS011;34915;52.926;11.116;2022-11-18T11:00:52;15.37;;;9.67;;
49103;SDS011;34915;52.926;11.116;2022-11-18T11:03:33;14.33;;;10.07;;
49103;SDS011;34915;52.926;11.116;2022-11-18T11:06:26;14.33;;;9.30;;
49103;SDS011;34915;52.926;11.116;2022-11-18T11:11:32;13.90;;;9.50;;
49103;SDS011;34915;52.926;11.116;2022-11-18T11:16:50;13.83;;;9.70;;
49103;SDS011;34915;52.926;11.116;2022-11-18T11:19:22;14.00;;;9.00;;
49103;SDS011;34915;52.926;11.116;2022-11-18T11:21:52;14.20;;;10.17;;
49103;SDS011;34915;52.926;11.116;2022-11-18T11:24:17;11.40;;;8.23;;
49103;SDS011;34915;52.926;11.116;2022-11-18T11:26:52;12.70;;;8.60;;
49103;SDS011;34915;52.926;11.116;2022-11-18T11:29:32;11.37;;;8.73;;
49103;SDS011;34915;52.926;11.116;2022-11-18T11:32:14;11.73;;;7.47;;
49103;SDS011;34915;52.926;11.116;2022-11-18T11:54:23;12.90;;;8.77;;
49103;SDS011;34915;52.926;11.116;2022-11-18T11:56:57;12.23;;;8.37;;
49103;SDS011;34915;52.926;11.116;2022-11-18T12:05:13;10.50;;;7.57;;
49103;SDS011;34915;52.926;11.116;2022-11-18T12:07:48;10.87;;;7.73;;
49103;SDS011;34915;52.926;11.116;2022-11-18T12:10:22;9.07;;;6.97;;
49103;SDS011;34915;52.926;11.116;2022-11-18T12:21:01;10.50;;;7.37;;
49103;SDS011;34915;52.926;11.116;2022-11-18T12:23:27;10.40;;;7.57;;
49103;SDS011;34915;52.926;11.116;2022-11-18T12:28:23;10.37;;;7.40;;
49103;SDS011;34915;52.926;11.116;2022-11-18T12:36:32;10.47;;;6.57;;
49103;SDS011;34915;52.926;11.116;2022-11-18T12:44:42;10.50;;;7.53;;
49103;SDS011;34915;52.926;11.116;2022-11-18T12:47:13;10.20;;;7.60;;
49103;SDS011;34915;52.926;11.116;2022-11-18T12:54:56;8.57;;;6.33;;
49103;SDS011;34915;52.926;11.116;2022-11-18T12:57:26;8.07;;;6.50;;
49103;SDS011;34915;52.926;11.116;2022-11-18T12:59:53;13.80;;;8.00;;
49103;SDS011;34915;52.926;11.116;2022-11-18T13:13:18;11.13;;;7.13;;
49103;SDS011;34915;52.926;11.116;2022-11-18T13:15:49;10.13;;;7.13;;
49103;SDS011;34915;52.926;11.116;2022-11-18T13:18:51;7.90;;;5.77;;
49103;SDS011;34915;52.926;11.116;2022-11-18T13:21:22;7.47;;;5.80;;
49103;SDS011;34915;52.926;11.116;2022-11-18T13:24:12;7.97;;;5.77;;
49103;SDS011;34915;52.926;11.116;2022-11-18T13:26:40;8.50;;;5.67;;
49103;SDS011;34915;52.926;11.116;2022-11-18T13:34:19;6.63;;;4.73;;
49103;SDS011;34915;52.926;11.116;2022-11-18T13:36:47;9.43;;;5.67;;
49103;SDS011;34915;52.926;11.116;2022-11-18T13:44:58;5.57;;;4.37;;
49103;SDS011;34915;52.926;11.116;2022-11-18T13:55:24;7.07;;;5.10;;
49103;SDS011;34915;52.926;11.116;2022-11-18T13:58:04;5.93;;;4.70;;
49103;SDS011;34915;52.926;11.116;2022-11-18T14:00:43;7.07;;;5.13;;
49103;SDS011;34915;52.926;11.116;2022-11-18T14:05:57;6.00;;;5.07;;
49103;SDS011;34915;52.926;11.116;2022-11-18T14:10:59;5.70;;;4.90;;
49103;SDS011;34915;52.926;11.116;2022-11-18T14:13:30;5.90;;;5.00;;
49103;SDS011;34915;52.926;11.116;2022-11-18T14:16:01;6.43;;;5.03;;
49103;SDS011;34915;52.926;11.116;2022-11-18T14:18:48;5.10;;;4.40;;
49103;SDS011;34915;52.926;11.116;2022-11-18T14:21:25;5.57;;;4.90;;
49103;SDS011;34915;52.926;11.116;2022-11-18T14:23:56;6.00;;;5.10;;
49103;SDS011;34915;52.926;11.116;2022-11-18T14:26:32;6.30;;;4.27;;
49103;SDS011;34915;52.926;11.116;2022-11-18T14:29:00;5.43;;;4.43;;
49103;SDS011;34915;52.926;11.116;2022-11-18T14:31:28;5.90;;;5.23;;
49103;SDS011;34915;52.926;11.116;2022-11-18T14:34:02;6.53;;;4.97;;
49103;SDS011;34915;52.926;11.116;2022-11-18T14:36:29;8.23;;;5.10;;
49103;SDS011;34915;52.926;11.116;2022-11-18T14:38:54;7.37;;;4.73;;
49103;SDS011;34915;52.926;11.116;2022-11-18T14:41:20;6.83;;;5.10;;
49103;SDS011;34915;52.926;11.116;2022-11-18T14:44:04;6.43;;;4.73;;
49103;SDS011;34915;52.926;11.116;2022-11-18T14:46:31;7.10;;;5.00;;
49103;SDS011;34915;52.926;11.116;2022-11-18T14:48:59;6.20;;;4.80;;
49103;SDS011;34915;52.926;11.116;2022-11-18T14:51:26;5.00;;;4.23;;
49103;SDS011;34915;52.926;11.116;2022-11-18T14:53:54;6.73;;;5.10;;
49103;SDS011;34915;52.926;11.116;2022-11-18T14:56:21;7.13;;;5.07;;
49103;SDS011;34915;52.926;11.116;2022-11-18T14:58:50;7.27;;;5.37;;
49103;SDS011;34915;52.926;11.116;2022-11-18T15:01:16;7.23;;;5.53;;
49103;SDS011;34915;52.926;11.116;2022-11-18T15:03:43;7.40;;;5.57;;
49103;SDS011;34915;52.926;11.116;2022-11-18T15:06:12;8.20;;;5.30;;
49103;SDS011;34915;52.926;11.116;2022-11-18T15:08:39;9.23;;;5.97;;
49103;SDS011;34915;52.926;11.116;2022-11-18T15:11:05;8.77;;;5.80;;
49103;SDS011;34915;52.926;11.116;2022-11-18T15:13:31;9.80;;;6.53;;
49103;SDS011;34915;52.926;11.116;2022-11-18T15:15:56;9.87;;;6.07;;
49103;SDS011;34915;52.926;11.116;2022-11-18T15:18:22;9.57;;;6.50;;
49103;SDS011;34915;52.926;11.116;2022-11-18T15:20:49;9.27;;;6.10;;
49103;SDS011;34915;52.926;11.116;2022-11-18T15:23:16;8.97;;;6.17;;
49103;SDS011;34915;52.926;11.116;2022-11-18T15:25:41;8.60;;;5.87;;
49103;SDS011;34915;52.926;11.116;2022-11-18T15:28:10;8.87;;;5.50;;
49103;SDS011;34915;52.926;11.116;2022-11-18T15:30:36;6.90;;;5.70;;
49103;SDS011;34915;52.926;11.116;2022-11-18T15:33:02;6.87;;;5.30;;
49103;SDS011;34915;52.926;11.116;2022-11-18T15:35:27;8.37;;;5.77;;
49103;SDS011;34915;52.926;11.116;2022-11-18T15:37:53;8.70;;;5.77;;
49103;SDS011;34915;52.926;11.116;2022-11-18T15:40:19;9.53;;;5.43;;
49103;SDS011;34915;52.926;11.116;2022-11-18T15:42:45;8.87;;;5.77;;
49103;SDS011;34915;52.926;11.116;2022-11-18T15:45:11;6.10;;;4.93;;
49103;SDS011;34915;52.926;11.116;2022-11-18T15:47:36;7.40;;;5.40;;
49103;SDS011;34915;52.926;11.116;2022-11-18T15:50:02;7.30;;;5.77;;
49103;SDS011;34915;52.926;11.116;2022-11-18T15:52:28;6.40;;;4.87;;
49103;SDS011;34915;52.926;11.116;2022-11-18T15:54:53;7.17;;;5.33;;
49103;SDS011;34915;52.926;11.116;2022-11-18T15:57:19;6.77;;;4.63;;
49103;SDS011;34915;52.926;11.116;2022-11-18T15:59:45;9.10;;;5.60;;
49103;SDS011;34915;52.926;11.116;2022-11-18T16:02:11;6.53;;;4.73;;
49103;SDS011;34915;52.926;11.116;2022-11-18T16:04:36;6.00;;;5.03;;
49103;SDS011;34915;52.926;11.116;2022-11-18T16:07:02;6.07;;;5.00;;
49103;SDS011;34915;52.926;11.116;2022-11-18T16:09:28;7.33;;;5.30;;
49103;SDS011;34915;52.926;11.116;2022-11-18T16:12:14;9.87;;;5.67;;
49103;SDS011;34915;52.926;11.116;2022-11-18T16:14:59;7.37;;;5.47;;
49103;SDS011;34915;52.926;11.116;2022-11-18T16:17:43;6.90;;;5.30;;
49103;SDS011;34915;52.926;11.116;2022-11-18T16:20:09;8.33;;;5.33;;
49103;SDS011;34915;52.926;11.116;2022-11-18T16:22:35;7.33;;;5.70;;
49103;SDS011;34915;52.926;11.116;2022-11-18T16:25:00;6.97;;;5.30;;
49103;SDS011;34915;52.926;11.116;2022-11-18T16:27:26;6.40;;;5.30;;
49103;SDS011;34915;52.926;11.116;2022-11-18T16:29:52;8.20;;;5.23;;
49103;SDS011;34915;52.926;11.116;2022-11-18T16:32:17;7.37;;;5.03;;
49103;SDS011;34915;52.926;11.116;2022-11-18T16:34:43;7.07;;;5.33;;
49103;SDS011;34915;52.926;11.116;2022-11-18T16:37:08;8.17;;;5.20;;
49103;SDS011;34915;52.926;11.116;2022-11-18T16:39:34;6.87;;;4.90;;
49103;SDS011;34915;52.926;11.116;2022-11-18T16:42:00;7.00;;;5.37;;
49103;SDS011;34915;52.926;11.116;2022-11-18T16:44:27;6.50;;;4.97;;
49103;SDS011;34915;52.926;11.116;2022-11-18T16:46:53;8.37;;;5.43;;
49103;SDS011;34915;52.926;11.116;2022-11-18T16:49:21;6.83;;;5.23;;
49103;SDS011;34915;52.926;11.116;2022-11-18T16:51:49;9.77;;;6.13;;
49103;SDS011;34915;52.926;11.116;2022-11-18T16:54:17;7.17;;;5.53;;
49103;SDS011;34915;52.926;11.116;2022-11-18T16:56:47;7.43;;;5.50;;
49103;SDS011;34915;52.926;11.116;2022-11-18T16:59:22;7.20;;;5.03;;
49103;SDS011;34915;52.926;11.116;2022-11-18T17:01:49;8.37;;;5.60;;